createdAt,value
2022-12-11T00:01:22.227Z,22.13
2022-12-11T00:03:50.920Z,21.65
2022-12-11T00:06:23.883Z,21.55
2022-12-11T00:08:54.251Z,19.45
2022-12-11T00:11:24.240Z,20.02
2022-12-11T00:13:52.342Z,19.98
2022-12-11T00:16:25.227Z,19.88
2022-12-11T00:18:54.979Z,21.25
2022-12-11T00:21:24.348Z,18.33
2022-12-11T00:23:52.800Z,16.85
2022-12-11T00:26:21.023Z,18.80
2022-12-11T00:28:53.812Z,19.13
2022-12-11T00:31:23.836Z,20.92
2022-12-11T00:33:52.482Z,16.10
2022-12-11T00:36:25.544Z,20.65
2022-12-11T00:38:54.702Z,17.23
2022-12-11T00:41:23.636Z,19.15
2022-12-11T00:43:52.492Z,19.48
2022-12-11T00:46:21.613Z,17.15
2022-12-11T00:48:50.069Z,20.95
2022-12-11T00:51:19.056Z,18.38
2022-12-11T00:53:48.733Z,22.52
2022-12-11T00:56:20.390Z,19.75
2022-12-11T00:58:49.576Z,19.75
2022-12-11T01:01:21.356Z,20.38
2022-12-11T01:03:50.035Z,18.95
2022-12-11T01:06:20.942Z,20.13
2022-12-11T01:09:12.281Z,21.02
2022-12-11T01:11:41.453Z,16.45
2022-12-11T01:14:10.532Z,20.58
2022-12-11T01:16:38.742Z,21.17
2022-12-11T01:19:06.988Z,21.15
2022-12-11T01:21:34.985Z,23.30
2022-12-11T01:24:05.134Z,20.67
2022-12-11T01:26:33.175Z,21.20
2022-12-11T01:29:01.387Z,18.58
2022-12-11T01:31:29.622Z,18.40
2022-12-11T01:33:58.037Z,21.48
2022-12-11T01:36:26.099Z,20.55
2022-12-11T01:38:54.438Z,20.27
2022-12-11T01:41:24.544Z,25.02
2022-12-11T01:44:05.631Z,20.75
2022-12-11T01:46:37.068Z,21.90
2022-12-11T01:49:11.315Z,25.25
2022-12-11T01:51:45.573Z,21.38
2022-12-11T01:54:15.933Z,19.35
2022-12-11T01:56:47.526Z,17.75
2022-12-11T01:59:20.490Z,23.83
2022-12-11T02:01:56.755Z,19.75
2022-12-11T02:04:26.097Z,19.65
2022-12-11T02:06:54.914Z,15.93
2022-12-11T02:09:27.834Z,22.65
2022-12-11T02:12:04.460Z,23.38
2022-12-11T02:14:42.234Z,21.85
2022-12-11T02:17:18.295Z,23.30
2022-12-11T02:20:03.248Z,20.90
2022-12-11T02:22:59.733Z,20.15
2022-12-11T02:25:36.688Z,22.92
2022-12-11T02:28:19.731Z,15.93
2022-12-11T02:30:54.995Z,18.65
2022-12-11T02:33:34.115Z,15.48
2022-12-11T02:36:05.930Z,15.55
2022-12-11T02:38:39.666Z,19.67
2022-12-11T02:41:10.497Z,19.98
2022-12-11T02:43:43.437Z,17.60
2022-12-11T02:46:13.854Z,17.70
2022-12-11T02:48:45.143Z,19.15
2022-12-11T02:51:19.455Z,16.33
2022-12-11T02:53:49.580Z,19.48
2022-12-11T02:56:25.148Z,17.70
2022-12-11T02:59:01.847Z,17.23
2022-12-11T03:01:30.670Z,19.20
2022-12-11T03:03:59.851Z,17.27
2022-12-11T03:06:36.119Z,16.52
2022-12-11T03:09:05.840Z,16.90
2022-12-11T03:11:34.188Z,16.88
2022-12-11T03:14:04.546Z,15.55
2022-12-11T03:16:38.818Z,17.02
2022-12-11T03:19:19.897Z,18.27
2022-12-11T03:21:54.581Z,15.02
2022-12-11T03:24:31.035Z,17.60
2022-12-11T03:27:10.969Z,19.10
2022-12-11T03:29:49.100Z,18.02
2022-12-11T03:32:23.939Z,16.42
2022-12-11T03:35:01.098Z,20.15
2022-12-11T03:37:35.710Z,17.50
2022-12-11T03:40:11.515Z,18.00
2022-12-11T03:42:43.351Z,20.48
2022-12-11T03:45:15.618Z,20.88
2022-12-11T03:47:46.182Z,20.85
2022-12-11T03:50:19.111Z,20.83
2022-12-11T03:52:51.779Z,22.85
2022-12-11T03:55:22.999Z,18.65
2022-12-11T03:57:51.276Z,18.92
2022-12-11T04:00:23.162Z,18.90
2022-12-11T04:03:09.669Z,22.25
2022-12-11T04:05:42.608Z,22.02
2022-12-11T04:08:11.687Z,21.20
2022-12-11T04:10:40.069Z,18.52
2022-12-11T04:13:08.752Z,20.35
2022-12-11T04:15:38.947Z,20.95
2022-12-11T04:18:26.281Z,19.60
2022-12-11T04:21:12.907Z,21.90
2022-12-11T04:23:58.570Z,20.30
2022-12-11T04:26:27.977Z,20.67
2022-12-11T04:28:56.044Z,20.60
2022-12-11T04:31:25.522Z,19.67
2022-12-11T04:33:53.717Z,17.35
2022-12-11T04:36:22.002Z,18.90
2022-12-11T04:38:50.080Z,23.30
2022-12-11T04:41:19.263Z,18.58
2022-12-11T04:43:47.337Z,21.88
2022-12-11T04:46:20.677Z,18.83
2022-12-11T04:48:57.009Z,17.05
2022-12-11T04:51:26.216Z,20.13
2022-12-11T04:53:54.481Z,19.55
2022-12-11T04:56:22.849Z,19.10
2022-12-11T04:58:52.069Z,19.98
2022-12-11T05:01:23.429Z,21.88
2022-12-11T05:03:52.913Z,20.60
2022-12-11T05:06:21.170Z,21.40
2022-12-11T05:08:49.214Z,22.10
2022-12-11T05:11:18.857Z,19.85
2022-12-11T05:13:47.290Z,20.52
2022-12-11T05:16:18.112Z,16.67
2022-12-11T05:18:47.360Z,19.40
2022-12-11T05:21:17.566Z,19.88
2022-12-11T05:23:45.801Z,20.08
2022-12-11T05:26:17.514Z,24.33
2022-12-11T05:28:47.129Z,21.00
2022-12-11T05:31:17.947Z,19.27
2022-12-11T05:33:47.751Z,20.10
2022-12-11T05:36:22.285Z,19.42
2022-12-11T05:38:51.068Z,20.42
2022-12-11T05:41:22.885Z,19.30
2022-12-11T05:43:51.208Z,18.42
2022-12-11T05:46:22.735Z,17.85
2022-12-11T05:48:53.590Z,22.73
2022-12-11T05:51:23.750Z,17.35
2022-12-11T05:53:53.935Z,19.23
2022-12-11T05:56:26.150Z,16.35
2022-12-11T05:58:55.596Z,16.65
2022-12-11T06:01:28.229Z,17.48
2022-12-11T06:03:57.766Z,17.38
2022-12-11T06:06:28.765Z,15.95
2022-12-11T06:08:59.380Z,16.27
2022-12-11T06:11:29.830Z,16.45
2022-12-11T06:13:58.781Z,17.27
2022-12-11T06:16:27.010Z,16.70
2022-12-11T06:18:58.185Z,19.40
2022-12-11T06:21:30.367Z,16.05
2022-12-11T06:24:01.447Z,18.42
2022-12-11T06:26:30.517Z,20.20
2022-12-11T06:28:58.655Z,19.08
2022-12-11T06:31:26.715Z,18.92
2022-12-11T06:33:54.810Z,21.15
2022-12-11T06:36:25.096Z,20.35
2022-12-11T06:38:56.304Z,18.40
2022-12-11T06:41:24.372Z,20.13
2022-12-11T06:43:52.419Z,18.83
2022-12-11T06:46:21.986Z,20.00
2022-12-11T06:48:51.145Z,18.70
2022-12-11T06:51:22.365Z,17.00
2022-12-11T06:53:54.873Z,20.45
2022-12-11T06:56:25.243Z,20.88
2022-12-11T06:58:53.912Z,17.50
2022-12-11T07:01:24.634Z,19.13
2022-12-11T07:03:54.894Z,21.30
2022-12-11T07:06:27.720Z,18.23
2022-12-11T07:08:57.764Z,18.58
2022-12-11T07:11:25.841Z,20.63
2022-12-11T07:13:53.829Z,18.27
2022-12-11T07:16:21.946Z,23.92
2022-12-11T07:18:52.145Z,22.08
2022-12-11T07:21:21.987Z,18.50
2022-12-11T07:23:50.998Z,19.40
2022-12-11T07:26:22.544Z,19.83
2022-12-11T07:28:51.116Z,29.05
2022-12-11T07:31:25.534Z,20.50
2022-12-11T07:33:55.866Z,17.42
2022-12-11T07:36:25.013Z,23.95
2022-12-11T07:38:54.543Z,22.75
2022-12-11T07:41:24.636Z,21.30
2022-12-11T07:43:55.542Z,16.85
2022-12-11T07:46:26.741Z,19.58
2022-12-11T07:48:55.024Z,19.55
2022-12-11T07:51:27.879Z,19.45
2022-12-11T07:53:59.935Z,17.90
2022-12-11T07:56:30.692Z,19.52
2022-12-11T07:59:01.177Z,18.90
2022-12-11T08:01:31.797Z,19.05
2022-12-11T08:04:00.462Z,19.98
2022-12-11T08:06:30.953Z,18.67
2022-12-11T08:09:01.759Z,16.35
2022-12-11T08:11:31.737Z,22.33
2022-12-11T08:14:00.440Z,22.02
2022-12-11T08:16:29.569Z,19.45
2022-12-11T08:18:58.791Z,23.15
2022-12-11T08:21:29.322Z,17.60
2022-12-11T08:24:00.164Z,17.80
2022-12-11T08:26:31.618Z,17.35
2022-12-11T08:29:01.811Z,17.67
2022-12-11T08:31:30.846Z,18.75
2022-12-11T08:33:58.991Z,19.10
2022-12-11T08:36:27.605Z,18.20
2022-12-11T08:38:57.197Z,21.83
2022-12-11T08:41:28.071Z,19.77
2022-12-11T08:44:00.232Z,19.30
2022-12-11T08:46:31.244Z,18.23
2022-12-11T08:49:00.568Z,19.05
2022-12-11T08:51:30.997Z,19.05
2022-12-11T08:54:01.783Z,18.48
2022-12-11T08:56:31.137Z,18.30
2022-12-11T08:59:04.085Z,19.75
2022-12-11T09:01:32.703Z,19.98
2022-12-11T09:04:01.810Z,19.48
2022-12-11T09:06:33.737Z,18.98
2022-12-11T09:09:03.375Z,15.40
2022-12-11T09:11:34.253Z,20.35
2022-12-11T09:14:07.592Z,20.75
2022-12-11T09:16:39.589Z,17.85
2022-12-11T09:19:12.434Z,21.60
2022-12-11T09:21:40.839Z,19.50
2022-12-11T09:24:12.516Z,19.35
2022-12-11T09:26:42.527Z,21.75
2022-12-11T09:29:12.894Z,20.23
2022-12-11T09:31:41.711Z,17.95
2022-12-11T09:34:14.998Z,20.38
2022-12-11T09:36:44.577Z,17.15
2022-12-11T09:39:14.806Z,19.33
2022-12-11T09:41:56.450Z,16.75
2022-12-11T09:44:43.215Z,18.70
2022-12-11T09:47:22.134Z,18.20
2022-12-11T09:49:57.929Z,17.48
2022-12-11T09:52:36.870Z,17.75
2022-12-11T09:55:17.570Z,17.58
2022-12-11T09:57:56.692Z,22.08
2022-12-11T10:00:34.202Z,19.10
2022-12-11T10:03:45.644Z,17.15
2022-12-11T10:06:25.075Z,19.92
2022-12-11T10:09:09.134Z,18.33
2022-12-11T10:11:58.586Z,19.17
2022-12-11T10:14:41.064Z,14.38
2022-12-11T10:17:19.907Z,17.15
2022-12-11T10:19:49.502Z,15.05
2022-12-11T10:22:24.631Z,17.42
2022-12-11T10:25:10.686Z,16.77
2022-12-11T10:27:42.023Z,14.57
2022-12-11T10:30:18.691Z,15.73
2022-12-11T10:33:07.802Z,25.48
2022-12-11T10:35:42.854Z,24.25
2022-12-11T10:38:18.460Z,29.88
2022-12-11T10:40:55.484Z,31.58
2022-12-11T10:43:35.302Z,20.73
2022-12-11T10:46:15.759Z,13.65
2022-12-11T10:48:50.157Z,16.10
2022-12-11T10:51:18.901Z,14.65
2022-12-11T10:53:52.568Z,14.80
2022-12-11T10:56:28.527Z,19.23
2022-12-11T10:58:59.571Z,59.05
2022-12-11T11:01:32.177Z,72.22
2022-12-11T11:04:09.950Z,92.53
2022-12-11T11:06:38.019Z,62.33
2022-12-11T11:09:06.281Z,56.03
2022-12-11T11:11:39.379Z,40.08
2022-12-11T11:14:18.195Z,36.67
2022-12-11T11:16:48.896Z,36.22
2022-12-11T11:19:26.060Z,16.73
2022-12-11T11:21:59.064Z,19.05
2022-12-11T11:24:37.534Z,15.65
2022-12-11T11:27:15.600Z,16.92
2022-12-11T11:29:47.772Z,15.43
2022-12-11T11:32:25.575Z,14.27
2022-12-11T11:34:54.914Z,18.42
2022-12-11T11:37:31.755Z,17.48
2022-12-11T11:40:11.830Z,17.13
2022-12-11T11:42:51.307Z,13.57
2022-12-11T11:45:25.997Z,14.65
2022-12-11T11:48:11.853Z,14.85
2022-12-11T11:50:50.470Z,30.25
2022-12-11T11:53:28.011Z,14.70
2022-12-11T11:56:08.048Z,14.75
2022-12-11T11:58:46.081Z,12.60
2022-12-11T12:01:18.684Z,15.38
2022-12-11T12:03:49.550Z,13.55
2022-12-11T12:06:32.313Z,11.05
2022-12-11T12:09:17.953Z,9.05
2022-12-11T12:11:59.251Z,9.68
2022-12-11T12:14:55.508Z,11.18
2022-12-11T12:17:38.114Z,12.00
2022-12-11T12:20:22.594Z,13.23
2022-12-11T12:23:10.955Z,10.68
2022-12-11T12:25:47.383Z,10.98
2022-12-11T12:28:31.911Z,11.20
2022-12-11T12:31:21.316Z,14.18
2022-12-11T12:34:04.753Z,11.52
2022-12-11T12:36:42.997Z,12.20
2022-12-11T12:39:27.041Z,12.60
2022-12-11T12:42:10.701Z,16.10
2022-12-11T12:44:55.008Z,11.60
2022-12-11T12:47:24.439Z,8.57
2022-12-11T12:49:57.903Z,11.32
2022-12-11T12:52:32.954Z,9.40
2022-12-11T12:55:18.805Z,9.38
2022-12-11T12:57:51.845Z,12.90
2022-12-11T13:00:31.001Z,12.98
2022-12-11T13:03:01.911Z,9.77
2022-12-11T13:05:34.292Z,11.60
2022-12-11T13:08:06.878Z,12.48
2022-12-11T13:10:40.335Z,11.80
2022-12-11T13:13:34.780Z,12.25
2022-12-11T13:16:27.115Z,13.18
2022-12-11T13:18:55.673Z,12.45
2022-12-11T13:21:33.918Z,11.40
2022-12-11T13:24:18.590Z,11.65
2022-12-11T13:26:49.572Z,11.07
2022-12-11T13:29:32.764Z,8.82
2022-12-11T13:32:04.375Z,12.77
2022-12-11T13:34:37.107Z,13.80
2022-12-11T13:37:07.344Z,13.70
2022-12-11T13:39:40.036Z,12.30
2022-12-11T13:42:29.058Z,13.90
2022-12-11T13:44:57.554Z,12.02
2022-12-11T13:47:27.060Z,15.73
2022-12-11T13:50:03.597Z,24.17
2022-12-11T13:52:32.631Z,19.33
2022-12-11T13:55:01.212Z,12.90
2022-12-11T13:57:30.786Z,13.93
2022-12-11T14:00:00.133Z,10.65
2022-12-11T14:02:33.684Z,11.43
2022-12-11T14:05:06.340Z,10.35
2022-12-11T14:07:37.967Z,13.18
2022-12-11T14:10:10.615Z,13.43
2022-12-11T14:12:45.318Z,11.05
2022-12-11T14:15:17.403Z,12.23
2022-12-11T14:17:51.392Z,12.32
2022-12-11T14:20:23.859Z,11.80
2022-12-11T14:22:52.551Z,11.20
2022-12-11T14:25:25.956Z,9.48
2022-12-11T14:27:57.318Z,10.27
2022-12-11T14:30:28.831Z,7.85
2022-12-11T14:33:02.024Z,8.60
2022-12-11T14:35:38.693Z,10.75
2022-12-11T14:38:18.730Z,10.38
2022-12-11T14:40:54.106Z,14.13
2022-12-11T14:43:29.842Z,13.93
2022-12-11T14:46:05.687Z,27.27
2022-12-11T14:48:42.801Z,14.18
2022-12-11T14:51:19.914Z,8.65
2022-12-11T14:53:51.650Z,12.88
2022-12-11T14:56:24.287Z,13.35
2022-12-11T14:59:02.842Z,13.82
2022-12-11T15:01:33.591Z,10.13
2022-12-11T15:04:08.716Z,10.10
2022-12-11T15:06:46.010Z,11.50
2022-12-11T15:09:21.142Z,14.85
2022-12-11T15:11:52.095Z,10.45
2022-12-11T15:14:24.794Z,9.05
2022-12-11T15:16:57.714Z,9.55
2022-12-11T15:19:31.494Z,10.65
2022-12-11T15:22:05.464Z,8.82
2022-12-11T15:24:41.249Z,11.45
2022-12-11T15:27:35.528Z,16.40
2022-12-11T15:30:28.258Z,19.92
2022-12-11T15:33:21.962Z,16.92
2022-12-11T15:36:06.860Z,14.52
2022-12-11T15:38:40.674Z,11.88
2022-12-11T15:41:17.467Z,12.20
2022-12-11T15:43:46.309Z,9.55
2022-12-11T15:46:15.765Z,24.90
2022-12-11T15:48:43.845Z,14.00
2022-12-11T15:51:12.865Z,9.23
2022-12-11T15:53:40.933Z,9.75
2022-12-11T15:56:14.832Z,13.85
2022-12-11T15:58:45.187Z,12.30
2022-12-11T16:01:13.281Z,11.70
2022-12-11T16:03:42.648Z,12.93
2022-12-11T16:06:13.094Z,11.30
2022-12-11T16:08:41.292Z,12.25
2022-12-11T16:11:13.981Z,14.35
2022-12-11T16:13:42.094Z,16.75
2022-12-11T16:16:10.183Z,17.60
2022-12-11T16:18:38.256Z,19.60
2022-12-11T16:21:08.072Z,19.50
2022-12-11T16:23:36.085Z,15.35
2022-12-11T16:26:09.182Z,16.13
2022-12-11T16:28:37.211Z,18.15
2022-12-11T16:31:10.407Z,16.95
2022-12-11T16:33:38.487Z,16.58
2022-12-11T16:36:16.553Z,10.65
2022-12-11T16:38:52.895Z,15.15
2022-12-11T16:41:22.779Z,20.20
2022-12-11T16:43:51.071Z,14.27
2022-12-11T16:46:20.344Z,11.85
2022-12-11T16:48:48.777Z,12.77
2022-12-11T16:51:18.648Z,14.65
2022-12-11T16:53:47.109Z,14.10
2022-12-11T16:56:15.171Z,13.45
2022-12-11T16:58:43.242Z,14.93
2022-12-11T17:01:13.712Z,15.30
2022-12-11T17:03:44.122Z,19.17
2022-12-11T17:06:14.705Z,20.52
2022-12-11T17:08:44.631Z,20.83
2022-12-11T17:11:16.468Z,26.65
2022-12-11T17:13:45.423Z,29.17
2022-12-11T17:16:16.759Z,35.65
2022-12-11T17:18:45.302Z,34.10
2022-12-11T17:21:17.170Z,28.48
2022-12-11T17:23:46.938Z,21.48
2022-12-11T17:26:15.681Z,23.10
2022-12-11T17:28:44.192Z,14.43
2022-12-11T17:31:17.941Z,13.57
2022-12-11T17:33:49.547Z,12.77
2022-12-11T17:36:21.404Z,16.25
2022-12-11T17:38:51.068Z,12.30
2022-12-11T17:41:22.610Z,15.65
2022-12-11T17:43:51.801Z,18.15
2022-12-11T17:46:21.457Z,20.15
2022-12-11T17:48:50.225Z,23.08
2022-12-11T17:51:24.011Z,17.60
2022-12-11T17:53:57.154Z,18.52
2022-12-11T17:56:26.812Z,18.10
2022-12-11T17:58:54.976Z,19.65
2022-12-11T18:01:23.262Z,16.20
2022-12-11T18:03:51.466Z,18.63
2022-12-11T18:06:19.565Z,18.33
2022-12-11T18:08:47.654Z,15.45
2022-12-11T18:11:21.560Z,22.00
2022-12-11T18:13:51.431Z,15.45
2022-12-11T18:16:25.211Z,14.07
2022-12-11T18:18:53.862Z,16.13
2022-12-11T18:21:26.464Z,16.75
2022-12-11T18:23:55.418Z,18.38
2022-12-11T18:26:25.786Z,17.88
2022-12-11T18:28:54.590Z,17.85
2022-12-11T18:31:23.865Z,19.55
2022-12-11T18:33:53.210Z,20.00
2022-12-11T18:36:22.425Z,17.70
2022-12-11T18:38:50.784Z,18.23
2022-12-11T18:41:20.881Z,14.60
2022-12-11T18:43:50.387Z,16.77
2022-12-11T18:46:22.558Z,14.10
2022-12-11T18:48:51.047Z,15.57
2022-12-11T18:51:23.895Z,16.42
2022-12-11T18:53:53.459Z,14.65
2022-12-11T18:56:23.867Z,14.75
2022-12-11T18:58:53.756Z,15.65
2022-12-11T19:01:24.323Z,16.10
2022-12-11T19:04:00.442Z,15.95
2022-12-11T19:06:32.003Z,14.32
2022-12-11T19:09:01.287Z,15.00
2022-12-11T19:11:32.676Z,13.90
2022-12-11T19:14:02.291Z,12.70
2022-12-11T19:16:33.707Z,11.95
2022-12-11T19:19:05.227Z,12.88
2022-12-11T19:21:35.347Z,12.02
2022-12-11T19:24:03.549Z,12.25
2022-12-11T19:26:31.607Z,12.13
2022-12-11T19:29:01.664Z,14.52
2022-12-11T19:31:33.920Z,12.20
2022-12-11T19:34:03.382Z,13.38
2022-12-11T19:36:33.580Z,12.07
2022-12-11T19:39:09.796Z,13.82
2022-12-11T19:41:41.361Z,13.73
2022-12-11T19:44:11.208Z,12.65
2022-12-11T19:46:40.041Z,14.00
2022-12-11T19:49:08.196Z,12.02
2022-12-11T19:51:39.998Z,11.57
2022-12-11T19:54:11.443Z,11.50
2022-12-11T19:56:39.853Z,13.70
2022-12-11T19:59:13.900Z,11.95
2022-12-11T20:01:42.142Z,12.95
2022-12-11T20:04:14.298Z,19.15
2022-12-11T20:06:45.995Z,14.23
2022-12-11T20:09:15.515Z,13.70
2022-12-11T20:11:47.277Z,12.73
2022-12-11T20:14:22.879Z,15.10
2022-12-11T20:17:10.933Z,12.07
2022-12-11T20:19:40.944Z,16.10
2022-12-11T20:22:09.434Z,13.65
2022-12-11T20:24:40.604Z,12.50
2022-12-11T20:27:10.028Z,11.80
2022-12-11T20:29:39.834Z,11.60
2022-12-11T20:32:11.307Z,12.55
2022-12-11T20:34:39.632Z,10.02
2022-12-11T20:37:07.746Z,11.25
2022-12-11T20:39:35.949Z,12.80
2022-12-11T20:42:06.967Z,14.57
2022-12-11T20:44:35.211Z,11.68
2022-12-11T20:47:06.634Z,10.82
2022-12-11T20:49:35.128Z,12.10
2022-12-11T20:52:03.380Z,12.70
2022-12-11T20:54:31.710Z,12.50
2022-12-11T20:57:00.003Z,12.93
2022-12-11T20:59:28.081Z,11.90
2022-12-11T21:01:56.215Z,11.40
2022-12-11T21:04:26.163Z,12.23
2022-12-11T21:06:56.160Z,10.93
2022-12-11T21:09:26.769Z,10.25
2022-12-11T21:11:57.844Z,10.73
2022-12-11T21:14:30.271Z,12.15
2022-12-11T21:16:58.703Z,14.75
2022-12-11T21:19:28.721Z,12.70
2022-12-11T21:21:57.235Z,16.88
2022-12-11T21:24:30.085Z,14.73
2022-12-11T21:26:59.566Z,17.38
2022-12-11T21:29:29.897Z,16.77
2022-12-11T21:32:00.886Z,13.82
2022-12-11T21:34:30.782Z,14.88
2022-12-11T21:36:59.210Z,14.95
2022-12-11T21:39:28.337Z,16.13
2022-12-11T21:41:58.032Z,14.38
2022-12-11T21:45:31.361Z,14.43
2022-12-11T21:47:14.195Z,14.13
2022-12-11T21:49:43.682Z,14.43
2022-12-11T21:52:11.917Z,12.27
2022-12-11T21:54:40.318Z,13.23
2022-12-11T21:57:08.706Z,9.15
2022-12-11T21:59:36.842Z,9.88
2022-12-11T22:02:05.433Z,11.07
2022-12-11T22:04:33.558Z,11.95
2022-12-11T22:07:02.894Z,8.88
2022-12-11T22:09:30.953Z,11.00
2022-12-11T22:11:59.218Z,11.38
2022-12-11T22:14:27.511Z,11.52
2022-12-11T22:16:55.736Z,7.53
2022-12-11T22:19:26.644Z,10.55
2022-12-11T22:21:58.820Z,10.65
2022-12-11T22:24:31.157Z,9.88
2022-12-11T22:26:59.347Z,8.38
2022-12-11T22:29:27.407Z,8.90
2022-12-11T22:31:55.442Z,8.65
2022-12-11T22:34:23.547Z,7.90
2022-12-11T22:36:51.663Z,8.32
2022-12-11T22:39:19.711Z,7.28
2022-12-11T22:41:49.219Z,10.25
2022-12-11T22:44:21.163Z,9.93
2022-12-11T22:46:50.851Z,8.77
2022-12-11T22:49:20.227Z,8.45
2022-12-11T22:51:48.852Z,6.70
2022-12-11T22:54:17.182Z,8.85
2022-12-11T22:56:45.336Z,7.80
2022-12-11T22:59:14.843Z,7.30
2022-12-11T23:01:42.896Z,6.43
2022-12-11T23:04:11.063Z,6.65
2022-12-11T23:06:39.381Z,7.35
2022-12-11T23:09:07.973Z,6.28
2022-12-11T23:11:39.254Z,7.10
2022-12-11T23:14:10.016Z,6.90
2022-12-11T23:16:39.453Z,10.13
2022-12-11T23:19:07.799Z,8.93
2022-12-11T23:21:36.089Z,6.78
2022-12-11T23:24:04.857Z,5.22
2022-12-11T23:26:33.464Z,5.95
2022-12-11T23:29:02.512Z,6.13
2022-12-11T23:31:33.644Z,6.25
2022-12-11T23:34:03.860Z,5.15
2022-12-11T23:36:32.069Z,6.25
2022-12-11T23:39:00.096Z,6.68
2022-12-11T23:41:28.273Z,6.78
2022-12-11T23:43:56.325Z,7.28
2022-12-11T23:46:26.006Z,6.65
2022-12-11T23:48:56.132Z,7.88
2022-12-11T23:51:26.817Z,8.45
2022-12-11T23:53:55.509Z,5.45
2022-12-11T23:56:27.150Z,5.95
2022-12-11T23:58:56.607Z,9.52
